sensor_id;sensor_type;location;lat;lon;timestamp;temperature;humidity
53208;DHT22;39093;52.788;6.940;2023-05-07T00:00:03;14.30;99.90
53208;DHT22;39093;52.788;6.940;2023-05-07T00:02:34;14.40;99.90
53208;DHT22;39093;52.788;6.940;2023-05-07T00:05:02;14.30;99.90
53208;DHT22;39093;52.788;6.940;2023-05-07T00:07:30;14.30;99.90
53208;DHT22;39093;52.788;6.940;2023-05-07T00:09:57;14.20;99.90
53208;DHT22;39093;52.788;6.940;2023-05-07T00:12:24;14.20;99.90
53208;DHT22;39093;52.788;6.940;2023-05-07T00:14:51;14.20;99.90
53208;DHT22;39093;52.788;6.940;2023-05-07T00:17:18;14.10;99.90
53208;DHT22;39093;52.788;6.940;2023-05-07T00:19:44;14.10;99.90
53208;DHT22;39093;52.788;6.940;2023-05-07T00:22:11;14.10;99.90
53208;DHT22;39093;52.788;6.940;2023-05-07T00:24:38;14.00;99.90
53208;DHT22;39093;52.788;6.940;2023-05-07T00:27:06;14.00;99.90
53208;DHT22;39093;52.788;6.940;2023-05-07T00:29:33;14.00;99.90
53208;DHT22;39093;52.788;6.940;2023-05-07T00:31:59;14.00;99.90
53208;DHT22;39093;52.788;6.940;2023-05-07T00:34:26;13.90;99.90
53208;DHT22;39093;52.788;6.940;2023-05-07T00:36:53;13.90;99.90
53208;DHT22;39093;52.788;6.940;2023-05-07T00:39:20;13.80;99.90
53208;DHT22;39093;52.788;6.940;2023-05-07T00:41:47;13.80;99.90
53208;DHT22;39093;52.788;6.940;2023-05-07T00:44:14;13.70;99.90
53208;DHT22;39093;52.788;6.940;2023-05-07T00:46:41;13.70;99.90
53208;DHT22;39093;52.788;6.940;2023-05-07T00:49:08;13.60;99.90
53208;DHT22;39093;52.788;6.940;2023-05-07T00:51:35;13.60;99.90
53208;DHT22;39093;52.788;6.940;2023-05-07T00:54:02;13.50;99.90
53208;DHT22;39093;52.788;6.940;2023-05-07T00:56:30;13.50;99.90
53208;DHT22;39093;52.788;6.940;2023-05-07T00:58:57;13.40;99.90
53208;DHT22;39093;52.788;6.940;2023-05-07T01:01:24;13.30;99.90
53208;DHT22;39093;52.788;6.940;2023-05-07T01:03:52;13.30;99.90
53208;DHT22;39093;52.788;6.940;2023-05-07T01:06:20;13.20;99.90
53208;DHT22;39093;52.788;6.940;2023-05-07T01:08:49;13.20;99.90
53208;DHT22;39093;52.788;6.940;2023-05-07T01:11:17;13.20;99.90
53208;DHT22;39093;52.788;6.940;2023-05-07T01:13:47;13.10;99.90
53208;DHT22;39093;52.788;6.940;2023-05-07T01:16:14;13.10;99.90
53208;DHT22;39093;52.788;6.940;2023-05-07T01:18:41;13.00;99.90
53208;DHT22;39093;52.788;6.940;2023-05-07T01:21:10;12.90;99.90
53208;DHT22;39093;52.788;6.940;2023-05-07T01:23:38;12.90;99.90
53208;DHT22;39093;52.788;6.940;2023-05-07T01:26:05;12.90;99.90
53208;DHT22;39093;52.788;6.940;2023-05-07T01:28:32;12.90;99.90
53208;DHT22;39093;52.788;6.940;2023-05-07T01:31:02;12.80;99.90
53208;DHT22;39093;52.788;6.940;2023-05-07T01:33:32;12.80;99.90
53208;DHT22;39093;52.788;6.940;2023-05-07T01:36:00;12.80;99.90
53208;DHT22;39093;52.788;6.940;2023-05-07T01:38:30;12.70;99.90
53208;DHT22;39093;52.788;6.940;2023-05-07T01:40:57;12.70;99.90
53208;DHT22;39093;52.788;6.940;2023-05-07T01:43:25;12.70;99.90
53208;DHT22;39093;52.788;6.940;2023-05-07T01:45:52;12.60;99.90
53208;DHT22;39093;52.788;6.940;2023-05-07T01:48:19;12.60;99.90
53208;DHT22;39093;52.788;6.940;2023-05-07T01:50:47;12.60;99.90
53208;DHT22;39093;52.788;6.940;2023-05-07T01:53:14;12.50;99.90
53208;DHT22;39093;52.788;6.940;2023-05-07T01:55:41;12.60;99.90
53208;DHT22;39093;52.788;6.940;2023-05-07T01:58:08;12.60;99.90
53208;DHT22;39093;52.788;6.940;2023-05-07T02:00:35;12.50;99.90
53208;DHT22;39093;52.788;6.940;2023-05-07T02:03:02;12.50;99.90
53208;DHT22;39093;52.788;6.940;2023-05-07T02:05:30;12.50;99.90
53208;DHT22;39093;52.788;6.940;2023-05-07T02:07:56;12.50;99.90
53208;DHT22;39093;52.788;6.940;2023-05-07T02:10:23;12.50;99.90
53208;DHT22;39093;52.788;6.940;2023-05-07T02:12:50;12.40;99.90
53208;DHT22;39093;52.788;6.940;2023-05-07T02:15:17;12.40;99.90
53208;DHT22;39093;52.788;6.940;2023-05-07T02:18:03;12.40;99.90
53208;DHT22;39093;52.788;6.940;2023-05-07T02:20:30;12.50;99.90
53208;DHT22;39093;52.788;6.940;2023-05-07T02:22:57;12.40;99.90
53208;DHT22;39093;52.788;6.940;2023-05-07T02:25:24;12.40;99.90
53208;DHT22;39093;52.788;6.940;2023-05-07T02:27:51;12.40;99.90
53208;DHT22;39093;52.788;6.940;2023-05-07T02:30:18;12.30;99.90
53208;DHT22;39093;52.788;6.940;2023-05-07T02:32:47;12.30;99.90
53208;DHT22;39093;52.788;6.940;2023-05-07T02:35:14;12.30;99.90
53208;DHT22;39093;52.788;6.940;2023-05-07T02:37:41;12.20;99.90
53208;DHT22;39093;52.788;6.940;2023-05-07T02:40:09;12.20;99.90
53208;DHT22;39093;52.788;6.940;2023-05-07T02:42:36;12.20;99.90
53208;DHT22;39093;52.788;6.940;2023-05-07T02:45:04;12.20;99.90
53208;DHT22;39093;52.788;6.940;2023-05-07T02:47:31;12.20;99.90
53208;DHT22;39093;52.788;6.940;2023-05-07T02:49:58;12.30;99.90
53208;DHT22;39093;52.788;6.940;2023-05-07T02:52:25;12.20;99.90
53208;DHT22;39093;52.788;6.940;2023-05-07T02:54:51;12.20;99.90
53208;DHT22;39093;52.788;6.940;2023-05-07T02:57:18;12.20;99.90
53208;DHT22;39093;52.788;6.940;2023-05-07T02:59:45;12.20;99.90
53208;DHT22;39093;52.788;6.940;2023-05-07T03:02:12;12.20;99.90
53208;DHT22;39093;52.788;6.940;2023-05-07T03:04:39;12.20;99.90
53208;DHT22;39093;52.788;6.940;2023-05-07T03:07:06;12.20;99.90
53208;DHT22;39093;52.788;6.940;2023-05-07T03:09:33;12.20;99.90
53208;DHT22;39093;52.788;6.940;2023-05-07T03:12:00;12.20;99.90
53208;DHT22;39093;52.788;6.940;2023-05-07T03:14:28;12.20;99.90
53208;DHT22;39093;52.788;6.940;2023-05-07T03:16:55;12.20;99.90
53208;DHT22;39093;52.788;6.940;2023-05-07T03:19:22;12.10;99.90
53208;DHT22;39093;52.788;6.940;2023-05-07T03:21:49;12.10;99.90
53208;DHT22;39093;52.788;6.940;2023-05-07T03:24:16;12.10;99.90
53208;DHT22;39093;52.788;6.940;2023-05-07T03:26:42;12.10;99.90
53208;DHT22;39093;52.788;6.940;2023-05-07T03:29:09;12.10;99.90
53208;DHT22;39093;52.788;6.940;2023-05-07T03:31:36;12.10;99.90
53208;DHT22;39093;52.788;6.940;2023-05-07T03:34:04;12.10;99.90
53208;DHT22;39093;52.788;6.940;2023-05-07T03:36:31;12.10;99.90
53208;DHT22;39093;52.788;6.940;2023-05-07T03:38:58;12.10;99.90
53208;DHT22;39093;52.788;6.940;2023-05-07T03:41:25;12.00;99.90
53208;DHT22;39093;52.788;6.940;2023-05-07T03:43:52;12.00;99.90
53208;DHT22;39093;52.788;6.940;2023-05-07T03:46:19;12.00;99.90
53208;DHT22;39093;52.788;6.940;2023-05-07T03:48:46;12.00;99.90
53208;DHT22;39093;52.788;6.940;2023-05-07T03:51:13;12.00;99.90
53208;DHT22;39093;52.788;6.940;2023-05-07T03:53:40;12.00;99.90
53208;DHT22;39093;52.788;6.940;2023-05-07T03:56:07;12.00;99.90
53208;DHT22;39093;52.788;6.940;2023-05-07T03:58:34;12.00;99.90
53208;DHT22;39093;52.788;6.940;2023-05-07T04:01:01;11.90;99.90
53208;DHT22;39093;52.788;6.940;2023-05-07T04:03:28;11.90;99.90
53208;DHT22;39093;52.788;6.940;2023-05-07T04:05:55;11.90;99.90
53208;DHT22;39093;52.788;6.940;2023-05-07T04:08:22;11.80;99.90
53208;DHT22;39093;52.788;6.940;2023-05-07T04:10:57;11.80;99.90
53208;DHT22;39093;52.788;6.940;2023-05-07T04:13:25;11.90;99.90
53208;DHT22;39093;52.788;6.940;2023-05-07T04:15:53;11.90;99.90
53208;DHT22;39093;52.788;6.940;2023-05-07T04:18:20;11.80;99.90
53208;DHT22;39093;52.788;6.940;2023-05-07T04:20:48;11.80;99.90
53208;DHT22;39093;52.788;6.940;2023-05-07T04:23:16;11.80;99.90
53208;DHT22;39093;52.788;6.940;2023-05-07T04:25:43;11.80;99.90
53208;DHT22;39093;52.788;6.940;2023-05-07T04:28:09;11.80;99.90
53208;DHT22;39093;52.788;6.940;2023-05-07T04:30:36;11.80;99.90
53208;DHT22;39093;52.788;6.940;2023-05-07T04:33:03;11.80;99.90
53208;DHT22;39093;52.788;6.940;2023-05-07T04:35:31;11.70;99.90
53208;DHT22;39093;52.788;6.940;2023-05-07T04:37:57;11.80;99.90
53208;DHT22;39093;52.788;6.940;2023-05-07T04:40:24;11.80;99.90
53208;DHT22;39093;52.788;6.940;2023-05-07T04:42:51;11.70;99.90
53208;DHT22;39093;52.788;6.940;2023-05-07T04:45:20;11.80;99.90
53208;DHT22;39093;52.788;6.940;2023-05-07T04:47:46;11.80;99.90
53208;DHT22;39093;52.788;6.940;2023-05-07T04:50:13;11.80;99.90
53208;DHT22;39093;52.788;6.940;2023-05-07T04:52:40;11.80;99.90
53208;DHT22;39093;52.788;6.940;2023-05-07T04:55:08;11.80;99.90
53208;DHT22;39093;52.788;6.940;2023-05-07T04:57:35;11.90;99.90
53208;DHT22;39093;52.788;6.940;2023-05-07T05:00:02;11.90;99.90
53208;DHT22;39093;52.788;6.940;2023-05-07T05:02:30;11.80;99.90
53208;DHT22;39093;52.788;6.940;2023-05-07T05:04:57;11.80;99.90
53208;DHT22;39093;52.788;6.940;2023-05-07T05:07:25;11.80;99.90
53208;DHT22;39093;52.788;6.940;2023-05-07T05:09:52;11.80;99.90
53208;DHT22;39093;52.788;6.940;2023-05-07T05:12:19;11.80;99.90
53208;DHT22;39093;52.788;6.940;2023-05-07T05:14:46;11.80;99.90
53208;DHT22;39093;52.788;6.940;2023-05-07T05:17:13;11.90;99.90
53208;DHT22;39093;52.788;6.940;2023-05-07T05:19:40;11.80;99.90
53208;DHT22;39093;52.788;6.940;2023-05-07T05:22:07;11.90;99.90
53208;DHT22;39093;52.788;6.940;2023-05-07T05:24:34;11.90;99.90
53208;DHT22;39093;52.788;6.940;2023-05-07T05:27:01;11.90;99.90
53208;DHT22;39093;52.788;6.940;2023-05-07T05:29:28;12.00;99.90
53208;DHT22;39093;52.788;6.940;2023-05-07T05:31:55;12.10;99.90
53208;DHT22;39093;52.788;6.940;2023-05-07T05:34:22;12.10;99.90
53208;DHT22;39093;52.788;6.940;2023-05-07T05:36:49;12.10;99.90
53208;DHT22;39093;52.788;6.940;2023-05-07T05:39:16;12.20;99.90
53208;DHT22;39093;52.788;6.940;2023-05-07T05:41:43;12.20;99.90
53208;DHT22;39093;52.788;6.940;2023-05-07T05:44:10;12.20;99.90
53208;DHT22;39093;52.788;6.940;2023-05-07T05:46:37;12.30;99.90
53208;DHT22;39093;52.788;6.940;2023-05-07T05:49:04;12.30;99.90
53208;DHT22;39093;52.788;6.940;2023-05-07T05:51:31;12.40;99.90
53208;DHT22;39093;52.788;6.940;2023-05-07T05:53:58;12.40;99.90
53208;DHT22;39093;52.788;6.940;2023-05-07T05:56:24;12.50;99.90
53208;DHT22;39093;52.788;6.940;2023-05-07T05:58:52;12.50;99.90
53208;DHT22;39093;52.788;6.940;2023-05-07T06:01:19;12.50;99.90
53208;DHT22;39093;52.788;6.940;2023-05-07T06:03:46;12.50;99.90
53208;DHT22;39093;52.788;6.940;2023-05-07T06:06:13;12.50;99.90
53208;DHT22;39093;52.788;6.940;2023-05-07T06:08:41;12.60;99.90
53208;DHT22;39093;52.788;6.940;2023-05-07T06:11:08;12.60;99.90
53208;DHT22;39093;52.788;6.940;2023-05-07T06:13:35;12.60;99.90
53208;DHT22;39093;52.788;6.940;2023-05-07T06:16:02;12.60;99.90
53208;DHT22;39093;52.788;6.940;2023-05-07T06:18:29;12.60;99.90
53208;DHT22;39093;52.788;6.940;2023-05-07T06:20:56;12.60;99.90
53208;DHT22;39093;52.788;6.940;2023-05-07T06:23:23;12.70;99.90
53208;DHT22;39093;52.788;6.940;2023-05-07T06:25:50;12.70;99.90
53208;DHT22;39093;52.788;6.940;2023-05-07T06:28:17;12.80;99.90
53208;DHT22;39093;52.788;6.940;2023-05-07T06:30:44;12.80;99.90
53208;DHT22;39093;52.788;6.940;2023-05-07T06:33:11;12.80;99.90
53208;DHT22;39093;52.788;6.940;2023-05-07T06:35:38;12.70;99.90
53208;DHT22;39093;52.788;6.940;2023-05-07T06:38:05;12.70;99.90
53208;DHT22;39093;52.788;6.940;2023-05-07T06:40:32;12.70;99.90
53208;DHT22;39093;52.788;6.940;2023-05-07T06:42:59;12.70;99.90
53208;DHT22;39093;52.788;6.940;2023-05-07T06:45:26;12.70;99.90
53208;DHT22;39093;52.788;6.940;2023-05-07T06:47:52;12.70;99.90
53208;DHT22;39093;52.788;6.940;2023-05-07T06:50:19;12.70;99.90
53208;DHT22;39093;52.788;6.940;2023-05-07T06:52:46;12.80;99.90
53208;DHT22;39093;52.788;6.940;2023-05-07T06:55:13;12.70;99.90
53208;DHT22;39093;52.788;6.940;2023-05-07T06:57:40;12.80;99.90
53208;DHT22;39093;52.788;6.940;2023-05-07T07:00:07;12.80;99.90
53208;DHT22;39093;52.788;6.940;2023-05-07T07:02:37;12.80;99.90
53208;DHT22;39093;52.788;6.940;2023-05-07T07:05:04;12.80;99.90
53208;DHT22;39093;52.788;6.940;2023-05-07T07:07:31;12.90;99.90
53208;DHT22;39093;52.788;6.940;2023-05-07T07:09:58;12.90;99.90
53208;DHT22;39093;52.788;6.940;2023-05-07T07:12:25;12.90;99.90
53208;DHT22;39093;52.788;6.940;2023-05-07T07:14:52;13.00;99.90
53208;DHT22;39093;52.788;6.940;2023-05-07T07:17:21;13.00;99.90
53208;DHT22;39093;52.788;6.940;2023-05-07T07:19:48;13.00;99.90
53208;DHT22;39093;52.788;6.940;2023-05-07T07:22:14;13.00;99.90
53208;DHT22;39093;52.788;6.940;2023-05-07T07:24:41;12.90;99.90
53208;DHT22;39093;52.788;6.940;2023-05-07T07:27:08;13.00;99.90
53208;DHT22;39093;52.788;6.940;2023-05-07T07:29:35;12.90;99.90
53208;DHT22;39093;52.788;6.940;2023-05-07T07:32:02;12.90;99.90
53208;DHT22;39093;52.788;6.940;2023-05-07T07:34:29;13.00;99.90
53208;DHT22;39093;52.788;6.940;2023-05-07T07:36:56;13.10;99.90
53208;DHT22;39093;52.788;6.940;2023-05-07T07:39:23;13.20;99.90
53208;DHT22;39093;52.788;6.940;2023-05-07T07:41:50;13.20;99.90
53208;DHT22;39093;52.788;6.940;2023-05-07T07:44:17;13.40;99.90
53208;DHT22;39093;52.788;6.940;2023-05-07T07:46:44;13.50;99.90
53208;DHT22;39093;52.788;6.940;2023-05-07T07:49:11;13.60;99.90
53208;DHT22;39093;52.788;6.940;2023-05-07T07:51:38;13.70;99.90
53208;DHT22;39093;52.788;6.940;2023-05-07T07:54:07;13.90;99.90
53208;DHT22;39093;52.788;6.940;2023-05-07T07:56:34;13.90;99.90
53208;DHT22;39093;52.788;6.940;2023-05-07T07:59:01;14.00;99.90
53208;DHT22;39093;52.788;6.940;2023-05-07T08:01:30;14.00;99.90
53208;DHT22;39093;52.788;6.940;2023-05-07T08:03:57;14.10;99.90
53208;DHT22;39093;52.788;6.940;2023-05-07T08:06:29;14.00;99.90
53208;DHT22;39093;52.788;6.940;2023-05-07T08:08:56;14.10;99.90
53208;DHT22;39093;52.788;6.940;2023-05-07T08:11:23;14.20;99.90
53208;DHT22;39093;52.788;6.940;2023-05-07T08:13:50;14.20;99.90
53208;DHT22;39093;52.788;6.940;2023-05-07T08:16:17;14.10;99.90
53208;DHT22;39093;52.788;6.940;2023-05-07T08:18:44;14.10;99.90
53208;DHT22;39093;52.788;6.940;2023-05-07T08:21:11;14.20;99.90
53208;DHT22;39093;52.788;6.940;2023-05-07T08:23:38;14.20;99.90
53208;DHT22;39093;52.788;6.940;2023-05-07T08:26:05;14.20;99.90
53208;DHT22;39093;52.788;6.940;2023-05-07T08:28:31;14.20;99.90
53208;DHT22;39093;52.788;6.940;2023-05-07T08:31:04;14.20;99.90
53208;DHT22;39093;52.788;6.940;2023-05-07T08:33:31;14.30;99.90
53208;DHT22;39093;52.788;6.940;2023-05-07T08:35:58;14.30;99.90
53208;DHT22;39093;52.788;6.940;2023-05-07T08:38:25;14.30;99.90
53208;DHT22;39093;52.788;6.940;2023-05-07T08:40:55;14.40;99.90
53208;DHT22;39093;52.788;6.940;2023-05-07T08:43:26;14.40;99.90
53208;DHT22;39093;52.788;6.940;2023-05-07T08:45:54;14.40;99.90
53208;DHT22;39093;52.788;6.940;2023-05-07T08:48:25;14.50;99.90
53208;DHT22;39093;52.788;6.940;2023-05-07T08:50:54;14.50;99.90
53208;DHT22;39093;52.788;6.940;2023-05-07T08:53:21;14.60;99.90
53208;DHT22;39093;52.788;6.940;2023-05-07T08:55:48;14.70;99.90
53208;DHT22;39093;52.788;6.940;2023-05-07T08:58:15;15.00;99.90
53208;DHT22;39093;52.788;6.940;2023-05-07T09:00:42;15.20;99.90
53208;DHT22;39093;52.788;6.940;2023-05-07T09:03:09;15.40;99.90
53208;DHT22;39093;52.788;6.940;2023-05-07T09:05:40;15.60;99.90
53208;DHT22;39093;52.788;6.940;2023-05-07T09:08:08;15.80;99.90
53208;DHT22;39093;52.788;6.940;2023-05-07T09:10:35;16.00;99.90
53208;DHT22;39093;52.788;6.940;2023-05-07T09:13:03;16.20;99.90
53208;DHT22;39093;52.788;6.940;2023-05-07T09:15:30;16.20;99.90
53208;DHT22;39093;52.788;6.940;2023-05-07T09:18:00;16.20;99.90
53208;DHT22;39093;52.788;6.940;2023-05-07T09:20:30;16.30;99.90
53208;DHT22;39093;52.788;6.940;2023-05-07T09:22:57;16.50;99.90
53208;DHT22;39093;52.788;6.940;2023-05-07T09:25:31;16.90;99.90
53208;DHT22;39093;52.788;6.940;2023-05-07T09:27:59;17.30;99.90
53208;DHT22;39093;52.788;6.940;2023-05-07T09:30:30;17.70;99.90
53208;DHT22;39093;52.788;6.940;2023-05-07T09:32:59;17.90;99.90
53208;DHT22;39093;52.788;6.940;2023-05-07T09:35:27;18.10;99.90
53208;DHT22;39093;52.788;6.940;2023-05-07T09:37:57;18.10;99.90
53208;DHT22;39093;52.788;6.940;2023-05-07T09:40:25;17.90;99.90
53208;DHT22;39093;52.788;6.940;2023-05-07T09:42:53;18.00;99.90
53208;DHT22;39093;52.788;6.940;2023-05-07T09:45:25;18.20;99.90
53208;DHT22;39093;52.788;6.940;2023-05-07T09:47:57;18.30;99.90
53208;DHT22;39093;52.788;6.940;2023-05-07T09:50:35;18.30;99.90
53208;DHT22;39093;52.788;6.940;2023-05-07T09:53:03;18.50;99.90
53208;DHT22;39093;52.788;6.940;2023-05-07T09:55:33;18.60;99.90
53208;DHT22;39093;52.788;6.940;2023-05-07T09:58:00;18.60;99.90
53208;DHT22;39093;52.788;6.940;2023-05-07T10:00:29;18.80;99.90
53208;DHT22;39093;52.788;6.940;2023-05-07T10:02:57;18.90;99.90
53208;DHT22;39093;52.788;6.940;2023-05-07T10:05:25;19.20;99.90
53208;DHT22;39093;52.788;6.940;2023-05-07T10:07:53;19.50;99.90
53208;DHT22;39093;52.788;6.940;2023-05-07T10:10:21;19.90;99.90
53208;DHT22;39093;52.788;6.940;2023-05-07T10:12:48;20.10;99.90
53208;DHT22;39093;52.788;6.940;2023-05-07T10:15:16;20.50;99.90
53208;DHT22;39093;52.788;6.940;2023-05-07T10:17:44;20.80;99.90
53208;DHT22;39093;52.788;6.940;2023-05-07T10:20:11;21.00;99.90
53208;DHT22;39093;52.788;6.940;2023-05-07T10:22:41;21.20;99.90
53208;DHT22;39093;52.788;6.940;2023-05-07T10:25:42;21.30;98.00
53208;DHT22;39093;52.788;6.940;2023-05-07T10:28:10;21.50;98.40
53208;DHT22;39093;52.788;6.940;2023-05-07T10:33:29;21.50;97.80
53208;DHT22;39093;52.788;6.940;2023-05-07T10:36:01;21.80;97.70
53208;DHT22;39093;52.788;6.940;2023-05-07T10:38:31;22.10;96.70
53208;DHT22;39093;52.788;6.940;2023-05-07T10:40:58;22.20;97.00
53208;DHT22;39093;52.788;6.940;2023-05-07T10:43:25;22.30;95.70
53208;DHT22;39093;52.788;6.940;2023-05-07T10:46:15;22.40;95.00
53208;DHT22;39093;52.788;6.940;2023-05-07T10:51:29;22.50;94.20
53208;DHT22;39093;52.788;6.940;2023-05-07T10:56:42;22.60;94.30
53208;DHT22;39093;52.788;6.940;2023-05-07T11:02:03;22.80;93.50
53208;DHT22;39093;52.788;6.940;2023-05-07T11:04:33;23.00;94.30
53208;DHT22;39093;52.788;6.940;2023-05-07T11:07:13;23.10;93.40
53208;DHT22;39093;52.788;6.940;2023-05-07T11:15:09;22.60;92.40
53208;DHT22;39093;52.788;6.940;2023-05-07T11:17:54;22.90;92.60
53208;DHT22;39093;52.788;6.940;2023-05-07T11:26:06;23.50;90.90
53208;DHT22;39093;52.788;6.940;2023-05-07T11:28:38;23.80;92.50
53208;DHT22;39093;52.788;6.940;2023-05-07T11:31:05;24.20;92.30
53208;DHT22;39093;52.788;6.940;2023-05-07T11:33:33;24.40;90.40
53208;DHT22;39093;52.788;6.940;2023-05-07T11:36:02;24.40;90.80
53208;DHT22;39093;52.788;6.940;2023-05-07T11:38:30;24.40;90.30
53208;DHT22;39093;52.788;6.940;2023-05-07T11:40:58;24.80;87.80
53208;DHT22;39093;52.788;6.940;2023-05-07T11:43:31;25.00;88.20
53208;DHT22;39093;52.788;6.940;2023-05-07T11:46:12;25.00;87.40
53208;DHT22;39093;52.788;6.940;2023-05-07T11:48:41;25.40;86.00
53208;DHT22;39093;52.788;6.940;2023-05-07T11:51:08;25.50;85.50
53208;DHT22;39093;52.788;6.940;2023-05-07T11:53:44;25.50;85.50
53208;DHT22;39093;52.788;6.940;2023-05-07T11:56:13;25.60;83.80
53208;DHT22;39093;52.788;6.940;2023-05-07T11:58:41;25.60;83.90
53208;DHT22;39093;52.788;6.940;2023-05-07T12:01:09;25.70;83.30
53208;DHT22;39093;52.788;6.940;2023-05-07T12:03:39;25.60;83.30
53208;DHT22;39093;52.788;6.940;2023-05-07T12:06:09;25.60;83.00
53208;DHT22;39093;52.788;6.940;2023-05-07T12:08:38;25.50;82.60
53208;DHT22;39093;52.788;6.940;2023-05-07T12:11:25;25.30;81.30
53208;DHT22;39093;52.788;6.940;2023-05-07T12:13:54;25.40;81.10
53208;DHT22;39093;52.788;6.940;2023-05-07T12:16:25;25.40;82.10
53208;DHT22;39093;52.788;6.940;2023-05-07T12:18:53;25.50;81.60
53208;DHT22;39093;52.788;6.940;2023-05-07T12:21:23;25.50;81.90
53208;DHT22;39093;52.788;6.940;2023-05-07T12:23:51;25.40;80.50
53208;DHT22;39093;52.788;6.940;2023-05-07T12:26:19;25.00;78.50
53208;DHT22;39093;52.788;6.940;2023-05-07T12:28:47;24.70;79.70
53208;DHT22;39093;52.788;6.940;2023-05-07T12:31:14;24.70;83.30
53208;DHT22;39093;52.788;6.940;2023-05-07T12:33:43;25.00;83.50
53208;DHT22;39093;52.788;6.940;2023-05-07T12:36:12;25.30;82.20
53208;DHT22;39093;52.788;6.940;2023-05-07T12:38:39;25.60;81.90
53208;DHT22;39093;52.788;6.940;2023-05-07T12:41:08;25.80;80.80
53208;DHT22;39093;52.788;6.940;2023-05-07T12:43:36;26.10;79.70
53208;DHT22;39093;52.788;6.940;2023-05-07T12:46:07;26.20;79.90
53208;DHT22;39093;52.788;6.940;2023-05-07T12:48:37;26.10;79.50
53208;DHT22;39093;52.788;6.940;2023-05-07T12:51:05;26.00;76.80
53208;DHT22;39093;52.788;6.940;2023-05-07T12:53:32;25.60;78.20
53208;DHT22;39093;52.788;6.940;2023-05-07T12:55:59;25.70;78.00
53208;DHT22;39093;52.788;6.940;2023-05-07T12:58:32;25.30;78.50
53208;DHT22;39093;52.788;6.940;2023-05-07T13:01:05;25.20;79.00
53208;DHT22;39093;52.788;6.940;2023-05-07T13:03:33;25.00;78.80
53208;DHT22;39093;52.788;6.940;2023-05-07T13:06:03;24.70;79.50
53208;DHT22;39093;52.788;6.940;2023-05-07T13:10:59;25.10;80.00
53208;DHT22;39093;52.788;6.940;2023-05-07T13:13:31;25.00;78.60
53208;DHT22;39093;52.788;6.940;2023-05-07T13:15:59;24.50;79.50
53208;DHT22;39093;52.788;6.940;2023-05-07T13:18:29;24.00;79.70
53208;DHT22;39093;52.788;6.940;2023-05-07T13:20:56;23.80;79.10
53208;DHT22;39093;52.788;6.940;2023-05-07T13:23:23;23.40;81.50
53208;DHT22;39093;52.788;6.940;2023-05-07T13:25:50;23.00;81.70
53208;DHT22;39093;52.788;6.940;2023-05-07T13:28:19;22.80;82.90
53208;DHT22;39093;52.788;6.940;2023-05-07T13:30:46;22.50;83.00
53208;DHT22;39093;52.788;6.940;2023-05-07T13:33:14;22.30;84.10
53208;DHT22;39093;52.788;6.940;2023-05-07T13:35:42;22.10;85.50
53208;DHT22;39093;52.788;6.940;2023-05-07T13:38:09;22.10;85.80
53208;DHT22;39093;52.788;6.940;2023-05-07T13:40:36;21.90;87.50
53208;DHT22;39093;52.788;6.940;2023-05-07T13:43:05;21.80;87.60
53208;DHT22;39093;52.788;6.940;2023-05-07T13:45:32;21.60;87.30
53208;DHT22;39093;52.788;6.940;2023-05-07T13:48:00;21.70;89.70
53208;DHT22;39093;52.788;6.940;2023-05-07T13:50:27;21.90;89.60
53208;DHT22;39093;52.788;6.940;2023-05-07T13:52:56;22.30;89.40
53208;DHT22;39093;52.788;6.940;2023-05-07T13:55:24;23.50;90.10
53208;DHT22;39093;52.788;6.940;2023-05-07T13:57:56;24.70;89.70
53208;DHT22;39093;52.788;6.940;2023-05-07T14:00:24;25.20;87.40
53208;DHT22;39093;52.788;6.940;2023-05-07T14:02:52;25.20;86.20
53208;DHT22;39093;52.788;6.940;2023-05-07T14:05:19;25.30;84.40
53208;DHT22;39093;52.788;6.940;2023-05-07T14:07:46;25.10;83.50
53208;DHT22;39093;52.788;6.940;2023-05-07T14:10:15;25.40;82.80
53208;DHT22;39093;52.788;6.940;2023-05-07T14:12:43;25.20;81.40
53208;DHT22;39093;52.788;6.940;2023-05-07T14:15:10;24.90;80.80
53208;DHT22;39093;52.788;6.940;2023-05-07T14:17:37;24.50;82.60
53208;DHT22;39093;52.788;6.940;2023-05-07T14:20:04;24.10;82.40
53208;DHT22;39093;52.788;6.940;2023-05-07T14:22:33;23.80;82.70
53208;DHT22;39093;52.788;6.940;2023-05-07T14:25:00;23.50;83.90
53208;DHT22;39093;52.788;6.940;2023-05-07T14:27:32;23.10;84.30
53208;DHT22;39093;52.788;6.940;2023-05-07T14:29:59;22.80;85.00
53208;DHT22;39093;52.788;6.940;2023-05-07T14:32:26;22.60;85.30
53208;DHT22;39093;52.788;6.940;2023-05-07T14:34:53;22.40;86.50
53208;DHT22;39093;52.788;6.940;2023-05-07T14:37:20;22.20;87.30
53208;DHT22;39093;52.788;6.940;2023-05-07T14:39:47;22.10;88.20
53208;DHT22;39093;52.788;6.940;2023-05-07T14:42:17;21.70;87.60
53208;DHT22;39093;52.788;6.940;2023-05-07T14:44:44;21.60;88.10
53208;DHT22;39093;52.788;6.940;2023-05-07T14:47:12;21.40;89.50
53208;DHT22;39093;52.788;6.940;2023-05-07T14:49:39;21.20;90.20
53208;DHT22;39093;52.788;6.940;2023-05-07T14:52:07;21.10;90.50
53208;DHT22;39093;52.788;6.940;2023-05-07T14:54:37;21.00;90.70
53208;DHT22;39093;52.788;6.940;2023-05-07T14:57:06;21.10;90.80
53208;DHT22;39093;52.788;6.940;2023-05-07T14:59:33;20.80;92.40
53208;DHT22;39093;52.788;6.940;2023-05-07T15:02:01;20.60;93.60
53208;DHT22;39093;52.788;6.940;2023-05-07T15:04:32;20.50;95.80
53208;DHT22;39093;52.788;6.940;2023-05-07T15:06:59;20.50;97.00
53208;DHT22;39093;52.788;6.940;2023-05-07T15:09:26;20.60;98.80
53208;DHT22;39093;52.788;6.940;2023-05-07T15:11:53;20.70;98.90
53208;DHT22;39093;52.788;6.940;2023-05-07T15:14:20;20.70;99.40
53208;DHT22;39093;52.788;6.940;2023-05-07T15:16:49;20.80;99.90
53208;DHT22;39093;52.788;6.940;2023-05-07T15:19:16;20.80;99.70
53208;DHT22;39093;52.788;6.940;2023-05-07T15:21:43;20.80;99.90
53208;DHT22;39093;52.788;6.940;2023-05-07T15:24:11;20.90;99.90
53208;DHT22;39093;52.788;6.940;2023-05-07T15:26:37;21.00;99.90
53208;DHT22;39093;52.788;6.940;2023-05-07T15:29:04;21.20;99.50
53208;DHT22;39093;52.788;6.940;2023-05-07T15:31:36;21.40;99.30
53208;DHT22;39093;52.788;6.940;2023-05-07T15:34:05;21.50;98.70
53208;DHT22;39093;52.788;6.940;2023-05-07T15:36:32;21.40;98.80
53208;DHT22;39093;52.788;6.940;2023-05-07T15:39:00;21.20;98.30
53208;DHT22;39093;52.788;6.940;2023-05-07T15:41:29;21.20;97.70
53208;DHT22;39093;52.788;6.940;2023-05-07T15:43:56;21.10;97.80
53208;DHT22;39093;52.788;6.940;2023-05-07T15:46:24;20.90;97.50
53208;DHT22;39093;52.788;6.940;2023-05-07T15:48:52;20.70;97.30
53208;DHT22;39093;52.788;6.940;2023-05-07T15:51:19;20.50;97.90
53208;DHT22;39093;52.788;6.940;2023-05-07T15:53:47;20.50;98.60
53208;DHT22;39093;52.788;6.940;2023-05-07T15:56:14;20.40;98.80
53208;DHT22;39093;52.788;6.940;2023-05-07T15:58:41;20.30;98.80